sensor_id;sensor_type;location;lat;lon;timestamp;P1;durP1;ratioP1;P2;durP2;ratioP2
3050;SDS011;1535;51.098;6.414;2022-07-12T00:00:26;10.43;;;9.47;;
3050;SDS011;1535;51.098;6.414;2022-07-12T00:02:53;9.90;;;9.40;;
3050;SDS011;1535;51.098;6.414;2022-07-12T00:05:22;10.27;;;9.77;;
3050;SDS011;1535;51.098;6.414;2022-07-12T00:07:50;12.07;;;10.97;;
3050;SDS011;1535;51.098;6.414;2022-07-12T00:10:17;21.60;;;13.17;;
3050;SDS011;1535;51.098;6.414;2022-07-12T00:12:44;11.53;;;10.63;;
3050;SDS011;1535;51.098;6.414;2022-07-12T00:15:12;10.77;;;9.90;;
3050;SDS011;1535;51.098;6.414;2022-07-12T00:17:42;10.40;;;9.60;;
3050;SDS011;1535;51.098;6.414;2022-07-12T00:20:09;10.07;;;9.47;;
3050;SDS011;1535;51.098;6.414;2022-07-12T00:22:39;10.73;;;10.13;;
3050;SDS011;1535;51.098;6.414;2022-07-12T00:25:06;12.30;;;11.20;;
3050;SDS011;1535;51.098;6.414;2022-07-12T00:27:34;11.20;;;10.60;;
3050;SDS011;1535;51.098;6.414;2022-07-12T00:30:01;10.37;;;9.33;;
3050;SDS011;1535;51.098;6.414;2022-07-12T00:32:29;10.97;;;10.03;;
3050;SDS011;1535;51.098;6.414;2022-07-12T00:34:56;11.70;;;10.87;;
3050;SDS011;1535;51.098;6.414;2022-07-12T00:37:25;10.50;;;10.00;;
3050;SDS011;1535;51.098;6.414;2022-07-12T00:39:54;11.40;;;10.50;;
3050;SDS011;1535;51.098;6.414;2022-07-12T00:42:21;12.73;;;11.83;;
3050;SDS011;1535;51.098;6.414;2022-07-12T00:44:48;12.37;;;11.47;;
3050;SDS011;1535;51.098;6.414;2022-07-12T00:47:18;12.13;;;11.10;;
3050;SDS011;1535;51.098;6.414;2022-07-12T00:49:53;11.23;;;10.57;;
3050;SDS011;1535;51.098;6.414;2022-07-12T00:52:20;11.57;;;10.77;;
3050;SDS011;1535;51.098;6.414;2022-07-12T00:54:48;11.83;;;11.23;;
3050;SDS011;1535;51.098;6.414;2022-07-12T00:57:17;12.13;;;11.30;;
3050;SDS011;1535;51.098;6.414;2022-07-12T00:59:43;11.27;;;10.67;;
3050;SDS011;1535;51.098;6.414;2022-07-12T01:02:11;11.73;;;11.10;;
3050;SDS011;1535;51.098;6.414;2022-07-12T01:04:38;11.70;;;10.93;;
3050;SDS011;1535;51.098;6.414;2022-07-12T01:07:05;12.37;;;11.40;;
3050;SDS011;1535;51.098;6.414;2022-07-12T01:09:33;12.40;;;11.67;;
3050;SDS011;1535;51.098;6.414;2022-07-12T01:12:00;12.30;;;11.23;;
3050;SDS011;1535;51.098;6.414;2022-07-12T01:14:30;11.70;;;11.10;;
3050;SDS011;1535;51.098;6.414;2022-07-12T01:16:58;12.03;;;11.43;;
3050;SDS011;1535;51.098;6.414;2022-07-12T01:19:26;13.70;;;12.43;;
3050;SDS011;1535;51.098;6.414;2022-07-12T01:21:54;12.70;;;12.00;;
3050;SDS011;1535;51.098;6.414;2022-07-12T01:24:25;12.13;;;11.53;;
3050;SDS011;1535;51.098;6.414;2022-07-12T01:26:52;12.20;;;11.60;;
3050;SDS011;1535;51.098;6.414;2022-07-12T01:29:19;12.97;;;12.17;;
3050;SDS011;1535;51.098;6.414;2022-07-12T01:31:47;13.27;;;12.37;;
3050;SDS011;1535;51.098;6.414;2022-07-12T01:34:15;13.50;;;12.80;;
3050;SDS011;1535;51.098;6.414;2022-07-12T01:36:43;12.70;;;12.00;;
3050;SDS011;1535;51.098;6.414;2022-07-12T01:39:11;13.03;;;12.10;;
3050;SDS011;1535;51.098;6.414;2022-07-12T01:41:39;12.93;;;12.10;;
3050;SDS011;1535;51.098;6.414;2022-07-12T01:44:07;13.73;;;13.03;;
3050;SDS011;1535;51.098;6.414;2022-07-12T01:46:33;13.50;;;12.80;;
3050;SDS011;1535;51.098;6.414;2022-07-12T01:49:00;13.93;;;13.07;;
3050;SDS011;1535;51.098;6.414;2022-07-12T01:51:28;13.50;;;12.50;;
3050;SDS011;1535;51.098;6.414;2022-07-12T01:53:58;13.10;;;12.50;;
3050;SDS011;1535;51.098;6.414;2022-07-12T01:56:25;13.57;;;12.87;;
3050;SDS011;1535;51.098;6.414;2022-07-12T01:58:53;14.07;;;13.20;;
3050;SDS011;1535;51.098;6.414;2022-07-12T02:01:21;13.20;;;12.50;;
3050;SDS011;1535;51.098;6.414;2022-07-12T02:03:49;13.37;;;12.47;;
3050;SDS011;1535;51.098;6.414;2022-07-12T02:06:16;13.20;;;12.43;;
3050;SDS011;1535;51.098;6.414;2022-07-12T02:08:58;13.50;;;12.80;;
3050;SDS011;1535;51.098;6.414;2022-07-12T02:11:24;14.30;;;13.50;;
3050;SDS011;1535;51.098;6.414;2022-07-12T02:13:53;14.07;;;13.27;;
3050;SDS011;1535;51.098;6.414;2022-07-12T02:16:19;15.10;;;14.20;;
3050;SDS011;1535;51.098;6.414;2022-07-12T02:18:46;14.97;;;14.17;;
3050;SDS011;1535;51.098;6.414;2022-07-12T02:21:13;13.13;;;12.47;;
3050;SDS011;1535;51.098;6.414;2022-07-12T02:23:40;13.77;;;12.93;;
3050;SDS011;1535;51.098;6.414;2022-07-12T02:26:07;14.60;;;13.33;;
3050;SDS011;1535;51.098;6.414;2022-07-12T02:28:35;14.17;;;13.20;;
3050;SDS011;1535;51.098;6.414;2022-07-12T02:31:04;14.23;;;13.33;;
3050;SDS011;1535;51.098;6.414;2022-07-12T02:33:31;13.97;;;13.20;;
3050;SDS011;1535;51.098;6.414;2022-07-12T02:35:58;14.70;;;14.00;;
3050;SDS011;1535;51.098;6.414;2022-07-12T02:38:24;13.07;;;12.30;;
3050;SDS011;1535;51.098;6.414;2022-07-12T02:40:52;14.90;;;13.90;;
3050;SDS011;1535;51.098;6.414;2022-07-12T02:43:19;14.97;;;13.97;;
3050;SDS011;1535;51.098;6.414;2022-07-12T02:45:46;14.50;;;13.70;;
3050;SDS011;1535;51.098;6.414;2022-07-12T02:48:15;15.07;;;14.17;;
3050;SDS011;1535;51.098;6.414;2022-07-12T02:50:43;14.40;;;13.23;;
3050;SDS011;1535;51.098;6.414;2022-07-12T02:53:10;14.87;;;14.00;;
3050;SDS011;1535;51.098;6.414;2022-07-12T02:55:37;14.70;;;14.00;;
3050;SDS011;1535;51.098;6.414;2022-07-12T02:58:05;15.10;;;14.30;;
3050;SDS011;1535;51.098;6.414;2022-07-12T03:00:32;15.47;;;14.67;;
3050;SDS011;1535;51.098;6.414;2022-07-12T03:03:01;14.10;;;13.40;;
3050;SDS011;1535;51.098;6.414;2022-07-12T03:05:29;15.00;;;14.10;;
3050;SDS011;1535;51.098;6.414;2022-07-12T03:07:57;14.30;;;13.50;;
3050;SDS011;1535;51.098;6.414;2022-07-12T03:10:25;15.47;;;14.27;;
3050;SDS011;1535;51.098;6.414;2022-07-12T03:12:53;14.70;;;13.93;;
3050;SDS011;1535;51.098;6.414;2022-07-12T03:15:21;15.23;;;14.10;;
3050;SDS011;1535;51.098;6.414;2022-07-12T03:17:48;14.97;;;14.17;;
3050;SDS011;1535;51.098;6.414;2022-07-12T03:20:15;14.80;;;13.60;;
3050;SDS011;1535;51.098;6.414;2022-07-12T03:22:44;15.57;;;14.57;;
3050;SDS011;1535;51.098;6.414;2022-07-12T03:25:15;15.33;;;14.30;;
3050;SDS011;1535;51.098;6.414;2022-07-12T03:27:42;14.90;;;14.00;;
3050;SDS011;1535;51.098;6.414;2022-07-12T03:30:10;14.83;;;14.03;;
3050;SDS011;1535;51.098;6.414;2022-07-12T03:32:38;15.70;;;14.43;;
3050;SDS011;1535;51.098;6.414;2022-07-12T03:35:05;14.73;;;13.93;;
3050;SDS011;1535;51.098;6.414;2022-07-12T03:37:39;14.83;;;14.03;;
3050;SDS011;1535;51.098;6.414;2022-07-12T03:40:12;15.50;;;14.70;;
3050;SDS011;1535;51.098;6.414;2022-07-12T03:42:40;16.30;;;15.10;;
3050;SDS011;1535;51.098;6.414;2022-07-12T03:45:07;16.40;;;14.90;;
3050;SDS011;1535;51.098;6.414;2022-07-12T03:47:34;15.00;;;14.20;;
3050;SDS011;1535;51.098;6.414;2022-07-12T03:50:02;16.33;;;14.80;;
3050;SDS011;1535;51.098;6.414;2022-07-12T03:52:31;16.33;;;15.23;;
3050;SDS011;1535;51.098;6.414;2022-07-12T03:55:00;17.67;;;16.00;;
3050;SDS011;1535;51.098;6.414;2022-07-12T03:57:28;16.33;;;15.30;;
3050;SDS011;1535;51.098;6.414;2022-07-12T03:59:55;15.80;;;14.80;;
3050;SDS011;1535;51.098;6.414;2022-07-12T04:02:22;14.97;;;14.00;;
3050;SDS011;1535;51.098;6.414;2022-07-12T04:04:49;16.47;;;14.90;;
3050;SDS011;1535;51.098;6.414;2022-07-12T04:07:16;15.80;;;14.70;;
3050;SDS011;1535;51.098;6.414;2022-07-12T04:09:43;15.67;;;14.60;;
3050;SDS011;1535;51.098;6.414;2022-07-12T04:12:12;15.43;;;14.30;;
3050;SDS011;1535;51.098;6.414;2022-07-12T04:14:39;15.70;;;14.80;;
3050;SDS011;1535;51.098;6.414;2022-07-12T04:17:06;15.10;;;14.30;;
3050;SDS011;1535;51.098;6.414;2022-07-12T04:19:33;16.07;;;14.67;;
3050;SDS011;1535;51.098;6.414;2022-07-12T04:22:00;15.43;;;14.50;;
3050;SDS011;1535;51.098;6.414;2022-07-12T04:24:27;15.83;;;14.40;;
3050;SDS011;1535;51.098;6.414;2022-07-12T04:26:54;14.20;;;13.20;;
3050;SDS011;1535;51.098;6.414;2022-07-12T04:29:22;15.43;;;14.13;;
3050;SDS011;1535;51.098;6.414;2022-07-12T04:31:49;17.03;;;15.43;;
3050;SDS011;1535;51.098;6.414;2022-07-12T04:34:16;15.10;;;14.10;;
3050;SDS011;1535;51.098;6.414;2022-07-12T04:36:43;15.50;;;14.60;;
3050;SDS011;1535;51.098;6.414;2022-07-12T04:39:11;15.67;;;14.57;;
3050;SDS011;1535;51.098;6.414;2022-07-12T04:41:38;14.80;;;14.00;;
3050;SDS011;1535;51.098;6.414;2022-07-12T04:44:05;15.33;;;14.10;;
3050;SDS011;1535;51.098;6.414;2022-07-12T04:46:33;15.70;;;14.83;;
3050;SDS011;1535;51.098;6.414;2022-07-12T04:49:00;15.90;;;14.67;;
3050;SDS011;1535;51.098;6.414;2022-07-12T04:51:27;14.77;;;13.97;;
3050;SDS011;1535;51.098;6.414;2022-07-12T04:53:54;15.47;;;14.03;;
3050;SDS011;1535;51.098;6.414;2022-07-12T04:56:22;15.53;;;14.07;;
3050;SDS011;1535;51.098;6.414;2022-07-12T04:58:48;15.30;;;14.40;;
3050;SDS011;1535;51.098;6.414;2022-07-12T05:01:15;15.60;;;14.50;;
3050;SDS011;1535;51.098;6.414;2022-07-12T05:03:44;19.57;;;14.50;;
3050;SDS011;1535;51.098;6.414;2022-07-12T05:06:11;15.83;;;14.63;;
3050;SDS011;1535;51.098;6.414;2022-07-12T05:08:38;15.87;;;14.67;;
3050;SDS011;1535;51.098;6.414;2022-07-12T05:11:04;16.70;;;15.13;;
3050;SDS011;1535;51.098;6.414;2022-07-12T05:13:31;18.80;;;15.60;;
3050;SDS011;1535;51.098;6.414;2022-07-12T05:15:58;19.40;;;14.13;;
3050;SDS011;1535;51.098;6.414;2022-07-12T05:18:25;15.00;;;13.97;;
3050;SDS011;1535;51.098;6.414;2022-07-12T05:20:54;16.30;;;14.60;;
3050;SDS011;1535;51.098;6.414;2022-07-12T05:23:20;19.40;;;15.10;;
3050;SDS011;1535;51.098;6.414;2022-07-12T05:25:47;16.57;;;14.90;;
3050;SDS011;1535;51.098;6.414;2022-07-12T05:28:14;14.47;;;13.27;;
3050;SDS011;1535;51.098;6.414;2022-07-12T05:30:41;17.83;;;14.17;;
3050;SDS011;1535;51.098;6.414;2022-07-12T05:33:09;24.70;;;13.90;;
3050;SDS011;1535;51.098;6.414;2022-07-12T05:35:37;17.87;;;15.60;;
3050;SDS011;1535;51.098;6.414;2022-07-12T05:38:05;22.90;;;16.03;;
3050;SDS011;1535;51.098;6.414;2022-07-12T05:40:32;43.87;;;15.90;;
3050;SDS011;1535;51.098;6.414;2022-07-12T05:42:59;35.50;;;15.70;;
3050;SDS011;1535;51.098;6.414;2022-07-12T05:45:26;20.37;;;12.73;;
3050;SDS011;1535;51.098;6.414;2022-07-12T05:47:52;23.60;;;14.70;;
3050;SDS011;1535;51.098;6.414;2022-07-12T05:50:19;23.00;;;14.27;;
3050;SDS011;1535;51.098;6.414;2022-07-12T05:52:46;27.20;;;15.57;;
3050;SDS011;1535;51.098;6.414;2022-07-12T05:55:32;23.00;;;16.40;;
3050;SDS011;1535;51.098;6.414;2022-07-12T05:57:58;35.13;;;15.80;;
3050;SDS011;1535;51.098;6.414;2022-07-12T06:00:25;36.20;;;16.10;;
3050;SDS011;1535;51.098;6.414;2022-07-12T06:02:53;34.13;;;16.93;;
3050;SDS011;1535;51.098;6.414;2022-07-12T06:05:20;25.83;;;16.23;;
3050;SDS011;1535;51.098;6.414;2022-07-12T06:07:47;31.90;;;16.20;;
3050;SDS011;1535;51.098;6.414;2022-07-12T06:10:14;30.80;;;15.97;;
3050;SDS011;1535;51.098;6.414;2022-07-12T06:12:43;25.57;;;15.60;;
3050;SDS011;1535;51.098;6.414;2022-07-12T06:15:11;31.67;;;17.57;;
3050;SDS011;1535;51.098;6.414;2022-07-12T06:17:39;38.83;;;19.50;;
3050;SDS011;1535;51.098;6.414;2022-07-12T06:20:06;29.60;;;15.57;;
3050;SDS011;1535;51.098;6.414;2022-07-12T06:22:33;26.33;;;16.43;;
3050;SDS011;1535;51.098;6.414;2022-07-12T06:25:00;33.33;;;15.43;;
3050;SDS011;1535;51.098;6.414;2022-07-12T06:27:27;22.47;;;15.40;;
3050;SDS011;1535;51.098;6.414;2022-07-12T06:29:55;33.80;;;15.33;;
3050;SDS011;1535;51.098;6.414;2022-07-12T06:32:22;26.03;;;14.40;;
3050;SDS011;1535;51.098;6.414;2022-07-12T06:34:48;26.83;;;16.23;;
3050;SDS011;1535;51.098;6.414;2022-07-12T06:37:15;29.57;;;15.97;;
3050;SDS011;1535;51.098;6.414;2022-07-12T06:39:42;22.47;;;15.47;;
3050;SDS011;1535;51.098;6.414;2022-07-12T06:42:12;26.53;;;17.47;;
3050;SDS011;1535;51.098;6.414;2022-07-12T06:44:38;29.60;;;16.20;;
3050;SDS011;1535;51.098;6.414;2022-07-12T06:47:07;19.17;;;14.70;;
3050;SDS011;1535;51.098;6.414;2022-07-12T06:49:33;28.13;;;15.93;;
3050;SDS011;1535;51.098;6.414;2022-07-12T06:52:00;30.50;;;16.97;;
3050;SDS011;1535;51.098;6.414;2022-07-12T06:54:27;35.43;;;17.87;;
3050;SDS011;1535;51.098;6.414;2022-07-12T06:56:54;26.07;;;16.57;;
3050;SDS011;1535;51.098;6.414;2022-07-12T06:59:21;18.30;;;16.40;;
3050;SDS011;1535;51.098;6.414;2022-07-12T07:01:47;26.43;;;19.00;;
3050;SDS011;1535;51.098;6.414;2022-07-12T07:04:16;23.47;;;16.87;;
3050;SDS011;1535;51.098;6.414;2022-07-12T07:06:44;26.20;;;17.93;;
3050;SDS011;1535;51.098;6.414;2022-07-12T07:09:11;19.07;;;17.03;;
3050;SDS011;1535;51.098;6.414;2022-07-12T07:11:40;26.03;;;17.60;;
3050;SDS011;1535;51.098;6.414;2022-07-12T07:14:06;19.83;;;16.27;;
3050;SDS011;1535;51.098;6.414;2022-07-12T07:16:34;19.53;;;17.63;;
3050;SDS011;1535;51.098;6.414;2022-07-12T07:19:01;19.10;;;16.10;;
3050;SDS011;1535;51.098;6.414;2022-07-12T07:21:32;19.97;;;18.03;;
3050;SDS011;1535;51.098;6.414;2022-07-12T07:23:58;20.57;;;18.07;;
3050;SDS011;1535;51.098;6.414;2022-07-12T07:26:25;22.10;;;17.40;;
3050;SDS011;1535;51.098;6.414;2022-07-12T07:28:52;25.77;;;19.03;;
3050;SDS011;1535;51.098;6.414;2022-07-12T07:31:37;27.70;;;17.73;;
3050;SDS011;1535;51.098;6.414;2022-07-12T07:34:04;20.30;;;18.00;;
3050;SDS011;1535;51.098;6.414;2022-07-12T07:36:33;23.17;;;18.07;;
3050;SDS011;1535;51.098;6.414;2022-07-12T07:39:00;20.23;;;18.60;;
3050;SDS011;1535;51.098;6.414;2022-07-12T07:41:27;21.97;;;19.00;;
3050;SDS011;1535;51.098;6.414;2022-07-12T07:43:54;27.67;;;18.70;;
3050;SDS011;1535;51.098;6.414;2022-07-12T07:46:21;37.43;;;19.30;;
3050;SDS011;1535;51.098;6.414;2022-07-12T07:48:48;19.17;;;17.80;;
3050;SDS011;1535;51.098;6.414;2022-07-12T07:51:15;19.20;;;17.73;;
3050;SDS011;1535;51.098;6.414;2022-07-12T07:53:44;18.97;;;17.40;;
3050;SDS011;1535;51.098;6.414;2022-07-12T07:56:11;19.90;;;18.20;;
3050;SDS011;1535;51.098;6.414;2022-07-12T07:58:38;19.80;;;17.70;;
3050;SDS011;1535;51.098;6.414;2022-07-12T08:01:05;26.90;;;18.20;;
3050;SDS011;1535;51.098;6.414;2022-07-12T08:03:32;18.93;;;17.00;;
3050;SDS011;1535;51.098;6.414;2022-07-12T08:05:59;18.67;;;16.97;;
3050;SDS011;1535;51.098;6.414;2022-07-12T08:08:27;19.20;;;17.90;;
3050;SDS011;1535;51.098;6.414;2022-07-12T08:10:57;18.93;;;17.57;;
3050;SDS011;1535;51.098;6.414;2022-07-12T08:13:25;19.83;;;18.20;;
3050;SDS011;1535;51.098;6.414;2022-07-12T08:15:51;19.80;;;18.30;;
3050;SDS011;1535;51.098;6.414;2022-07-12T08:18:18;19.80;;;18.50;;
3050;SDS011;1535;51.098;6.414;2022-07-12T08:20:46;21.70;;;19.37;;
3050;SDS011;1535;51.098;6.414;2022-07-12T08:23:13;22.60;;;20.40;;
3050;SDS011;1535;51.098;6.414;2022-07-12T08:25:40;21.07;;;19.47;;
3050;SDS011;1535;51.098;6.414;2022-07-12T08:28:08;21.53;;;19.60;;
3050;SDS011;1535;51.098;6.414;2022-07-12T08:30:36;21.07;;;19.57;;
3050;SDS011;1535;51.098;6.414;2022-07-12T08:33:02;21.30;;;19.13;;
3050;SDS011;1535;51.098;6.414;2022-07-12T08:35:29;19.73;;;18.10;;
3050;SDS011;1535;51.098;6.414;2022-07-12T08:37:56;19.53;;;18.10;;
3050;SDS011;1535;51.098;6.414;2022-07-12T08:40:24;18.50;;;17.33;;
3050;SDS011;1535;51.098;6.414;2022-07-12T08:42:51;19.97;;;18.43;;
3050;SDS011;1535;51.098;6.414;2022-07-12T08:45:19;17.87;;;16.70;;
3050;SDS011;1535;51.098;6.414;2022-07-12T08:47:45;18.40;;;17.40;;
3050;SDS011;1535;51.098;6.414;2022-07-12T08:50:13;19.47;;;18.17;;
3050;SDS011;1535;51.098;6.414;2022-07-12T08:52:42;19.20;;;18.00;;
3050;SDS011;1535;51.098;6.414;2022-07-12T08:55:17;20.20;;;18.63;;
3050;SDS011;1535;51.098;6.414;2022-07-12T08:57:47;18.73;;;17.43;;
3050;SDS011;1535;51.098;6.414;2022-07-12T09:00:14;19.80;;;18.40;;
3050;SDS011;1535;51.098;6.414;2022-07-12T09:02:49;19.17;;;18.17;;
3050;SDS011;1535;51.098;6.414;2022-07-12T09:05:18;18.73;;;17.43;;
3050;SDS011;1535;51.098;6.414;2022-07-12T09:07:46;19.07;;;17.57;;
3050;SDS011;1535;51.098;6.414;2022-07-12T09:10:14;19.17;;;17.80;;
3050;SDS011;1535;51.098;6.414;2022-07-12T09:12:42;18.00;;;16.90;;
3050;SDS011;1535;51.098;6.414;2022-07-12T09:15:16;18.53;;;17.13;;
3050;SDS011;1535;51.098;6.414;2022-07-12T09:17:55;18.40;;;17.40;;
3050;SDS011;1535;51.098;6.414;2022-07-12T09:20:24;18.73;;;17.30;;
3050;SDS011;1535;51.098;6.414;2022-07-12T09:22:52;24.50;;;18.13;;
3050;SDS011;1535;51.098;6.414;2022-07-12T09:25:20;18.10;;;17.20;;
3050;SDS011;1535;51.098;6.414;2022-07-12T09:27:48;18.20;;;16.77;;
3050;SDS011;1535;51.098;6.414;2022-07-12T09:30:19;18.13;;;17.00;;
3050;SDS011;1535;51.098;6.414;2022-07-12T09:32:58;17.30;;;16.30;;
3050;SDS011;1535;51.098;6.414;2022-07-12T09:35:43;19.07;;;17.53;;
3050;SDS011;1535;51.098;6.414;2022-07-12T09:38:33;18.67;;;17.03;;
3050;SDS011;1535;51.098;6.414;2022-07-12T09:41:00;18.23;;;17.10;;
3050;SDS011;1535;51.098;6.414;2022-07-12T09:43:27;17.43;;;16.30;;
3050;SDS011;1535;51.098;6.414;2022-07-12T09:45:55;17.30;;;16.30;;
3050;SDS011;1535;51.098;6.414;2022-07-12T09:48:23;17.83;;;16.30;;
3050;SDS011;1535;51.098;6.414;2022-07-12T09:50:52;17.23;;;16.23;;
3050;SDS011;1535;51.098;6.414;2022-07-12T09:53:20;17.33;;;16.13;;
3050;SDS011;1535;51.098;6.414;2022-07-12T09:55:51;17.33;;;16.17;;
3050;SDS011;1535;51.098;6.414;2022-07-12T09:58:22;18.23;;;16.97;;
3050;SDS011;1535;51.098;6.414;2022-07-12T10:00:52;17.73;;;16.70;;
3050;SDS011;1535;51.098;6.414;2022-07-12T10:03:20;17.20;;;16.20;;
3050;SDS011;1535;51.098;6.414;2022-07-12T10:05:51;18.17;;;16.67;;
3050;SDS011;1535;51.098;6.414;2022-07-12T10:08:19;18.10;;;16.80;;
3050;SDS011;1535;51.098;6.414;2022-07-12T10:10:48;17.17;;;16.27;;
3050;SDS011;1535;51.098;6.414;2022-07-12T10:13:15;17.90;;;16.80;;
3050;SDS011;1535;51.098;6.414;2022-07-12T10:15:45;17.57;;;16.60;;
3050;SDS011;1535;51.098;6.414;2022-07-12T10:18:17;17.40;;;16.50;;
3050;SDS011;1535;51.098;6.414;2022-07-12T10:20:45;17.87;;;16.57;;
3050;SDS011;1535;51.098;6.414;2022-07-12T10:28:56;17.27;;;16.47;;
3050;SDS011;1535;51.098;6.414;2022-07-12T10:31:28;19.27;;;17.30;;
3050;SDS011;1535;51.098;6.414;2022-07-12T10:34:00;18.10;;;16.93;;
3050;SDS011;1535;51.098;6.414;2022-07-12T10:39:39;16.70;;;15.80;;
3050;SDS011;1535;51.098;6.414;2022-07-12T10:42:13;16.80;;;15.90;;
3050;SDS011;1535;51.098;6.414;2022-07-12T10:44:43;17.60;;;15.93;;
3050;SDS011;1535;51.098;6.414;2022-07-12T10:47:11;17.30;;;16.30;;
3050;SDS011;1535;51.098;6.414;2022-07-12T10:49:48;17.50;;;16.40;;
3050;SDS011;1535;51.098;6.414;2022-07-12T10:52:17;17.40;;;16.40;;
3050;SDS011;1535;51.098;6.414;2022-07-12T10:57:49;17.20;;;16.30;;
3050;SDS011;1535;51.098;6.414;2022-07-12T11:00:19;16.20;;;15.50;;
3050;SDS011;1535;51.098;6.414;2022-07-12T11:02:48;17.00;;;15.70;;
3050;SDS011;1535;51.098;6.414;2022-07-12T11:05:15;16.47;;;15.47;;
3050;SDS011;1535;51.098;6.414;2022-07-12T11:07:41;17.03;;;15.77;;
3050;SDS011;1535;51.098;6.414;2022-07-12T11:10:11;17.33;;;16.27;;
3050;SDS011;1535;51.098;6.414;2022-07-12T11:12:39;18.33;;;16.60;;
3050;SDS011;1535;51.098;6.414;2022-07-12T11:15:07;16.83;;;15.87;;
3050;SDS011;1535;51.098;6.414;2022-07-12T11:17:35;18.67;;;16.20;;
3050;SDS011;1535;51.098;6.414;2022-07-12T11:20:03;16.70;;;15.60;;
3050;SDS011;1535;51.098;6.414;2022-07-12T11:22:31;17.83;;;15.70;;
3050;SDS011;1535;51.098;6.414;2022-07-12T11:24:58;16.87;;;15.47;;
3050;SDS011;1535;51.098;6.414;2022-07-12T11:27:25;16.53;;;15.60;;
3050;SDS011;1535;51.098;6.414;2022-07-12T11:29:56;16.77;;;15.63;;
3050;SDS011;1535;51.098;6.414;2022-07-12T11:32:34;17.43;;;15.90;;
3050;SDS011;1535;51.098;6.414;2022-07-12T11:35:17;16.20;;;15.07;;
3050;SDS011;1535;51.098;6.414;2022-07-12T11:37:49;17.10;;;15.67;;
3050;SDS011;1535;51.098;6.414;2022-07-12T11:40:20;16.30;;;15.27;;
3050;SDS011;1535;51.098;6.414;2022-07-12T11:42:52;17.23;;;15.80;;
3050;SDS011;1535;51.098;6.414;2022-07-12T11:45:20;16.00;;;14.97;;
3050;SDS011;1535;51.098;6.414;2022-07-12T11:47:48;16.53;;;15.27;;
3050;SDS011;1535;51.098;6.414;2022-07-12T11:50:17;15.93;;;14.90;;
3050;SDS011;1535;51.098;6.414;2022-07-12T11:52:44;17.23;;;16.03;;
3050;SDS011;1535;51.098;6.414;2022-07-12T11:55:11;16.77;;;15.60;;
3050;SDS011;1535;51.098;6.414;2022-07-12T11:57:38;16.07;;;15.03;;
3050;SDS011;1535;51.098;6.414;2022-07-12T12:00:12;15.90;;;14.70;;
3050;SDS011;1535;51.098;6.414;2022-07-12T12:02:43;16.20;;;15.20;;
3050;SDS011;1535;51.098;6.414;2022-07-12T12:05:12;22.67;;;20.53;;
3050;SDS011;1535;51.098;6.414;2022-07-12T12:07:39;16.10;;;15.03;;
3050;SDS011;1535;51.098;6.414;2022-07-12T12:10:06;17.67;;;16.10;;
3050;SDS011;1535;51.098;6.414;2022-07-12T12:12:41;16.03;;;15.23;;
3050;SDS011;1535;51.098;6.414;2022-07-12T12:15:09;16.87;;;15.50;;
3050;SDS011;1535;51.098;6.414;2022-07-12T12:17:42;15.47;;;14.57;;
3050;SDS011;1535;51.098;6.414;2022-07-12T12:20:13;17.30;;;15.87;;
3050;SDS011;1535;51.098;6.414;2022-07-12T12:22:43;16.50;;;15.40;;
3050;SDS011;1535;51.098;6.414;2022-07-12T12:25:10;16.33;;;15.43;;
3050;SDS011;1535;51.098;6.414;2022-07-12T12:27:44;15.90;;;15.10;;
3050;SDS011;1535;51.098;6.414;2022-07-12T12:30:12;16.27;;;15.27;;
3050;SDS011;1535;51.098;6.414;2022-07-12T12:32:46;16.13;;;15.37;;
3050;SDS011;1535;51.098;6.414;2022-07-12T12:35:16;16.87;;;15.80;;
3050;SDS011;1535;51.098;6.414;2022-07-12T12:37:54;17.63;;;15.97;;
3050;SDS011;1535;51.098;6.414;2022-07-12T12:40:22;19.03;;;15.73;;
3050;SDS011;1535;51.098;6.414;2022-07-12T12:42:51;16.10;;;14.97;;
3050;SDS011;1535;51.098;6.414;2022-07-12T12:45:19;16.37;;;15.37;;
3050;SDS011;1535;51.098;6.414;2022-07-12T12:47:57;16.23;;;15.43;;
3050;SDS011;1535;51.098;6.414;2022-07-12T12:50:39;15.73;;;14.83;;
3050;SDS011;1535;51.098;6.414;2022-07-12T12:53:12;16.10;;;15.17;;
3050;SDS011;1535;51.098;6.414;2022-07-12T12:55:41;16.57;;;15.67;;
3050;SDS011;1535;51.098;6.414;2022-07-12T12:58:09;15.43;;;14.53;;
3050;SDS011;1535;51.098;6.414;2022-07-12T13:00:37;15.50;;;14.70;;
3050;SDS011;1535;51.098;6.414;2022-07-12T13:03:07;15.60;;;14.67;;
3050;SDS011;1535;51.098;6.414;2022-07-12T13:05:35;16.00;;;15.10;;
3050;SDS011;1535;51.098;6.414;2022-07-12T13:08:04;14.77;;;14.07;;
3050;SDS011;1535;51.098;6.414;2022-07-12T13:10:32;15.80;;;14.80;;
3050;SDS011;1535;51.098;6.414;2022-07-12T13:12:59;15.83;;;14.23;;
3050;SDS011;1535;51.098;6.414;2022-07-12T13:15:28;14.30;;;13.50;;
3050;SDS011;1535;51.098;6.414;2022-07-12T13:17:55;15.23;;;14.53;;
3050;SDS011;1535;51.098;6.414;2022-07-12T13:20:22;15.40;;;14.37;;
3050;SDS011;1535;51.098;6.414;2022-07-12T13:22:50;15.70;;;14.80;;
3050;SDS011;1535;51.098;6.414;2022-07-12T13:25:18;15.93;;;14.50;;
3050;SDS011;1535;51.098;6.414;2022-07-12T13:27:45;15.30;;;14.60;;
3050;SDS011;1535;51.098;6.414;2022-07-12T13:30:13;15.47;;;14.57;;
3050;SDS011;1535;51.098;6.414;2022-07-12T13:32:41;16.97;;;15.47;;
3050;SDS011;1535;51.098;6.414;2022-07-12T13:35:10;16.80;;;15.80;;
3050;SDS011;1535;51.098;6.414;2022-07-12T13:37:39;16.90;;;16.10;;
3050;SDS011;1535;51.098;6.414;2022-07-12T13:40:07;15.80;;;15.00;;
3050;SDS011;1535;51.098;6.414;2022-07-12T13:42:41;16.70;;;15.57;;
3050;SDS011;1535;51.098;6.414;2022-07-12T13:45:09;15.70;;;14.87;;
3050;SDS011;1535;51.098;6.414;2022-07-12T13:50:20;16.40;;;15.60;;
3050;SDS011;1535;51.098;6.414;2022-07-12T13:52:48;16.73;;;15.77;;
3050;SDS011;1535;51.098;6.414;2022-07-12T13:55:15;15.73;;;15.03;;
3050;SDS011;1535;51.098;6.414;2022-07-12T13:57:44;16.50;;;15.70;;
3050;SDS011;1535;51.098;6.414;2022-07-12T14:00:12;17.33;;;15.83;;
3050;SDS011;1535;51.098;6.414;2022-07-12T14:02:41;16.37;;;15.53;;
3050;SDS011;1535;51.098;6.414;2022-07-12T14:05:10;16.50;;;15.60;;
3050;SDS011;1535;51.098;6.414;2022-07-12T14:07:38;16.50;;;15.40;;
3050;SDS011;1535;51.098;6.414;2022-07-12T14:10:06;16.30;;;15.50;;
3050;SDS011;1535;51.098;6.414;2022-07-12T14:12:34;17.50;;;15.53;;
3050;SDS011;1535;51.098;6.414;2022-07-12T14:15:02;16.63;;;15.90;;
3050;SDS011;1535;51.098;6.414;2022-07-12T14:17:45;16.83;;;16.03;;
3050;SDS011;1535;51.098;6.414;2022-07-12T14:20:14;16.53;;;15.50;;
3050;SDS011;1535;51.098;6.414;2022-07-12T14:22:43;16.30;;;15.40;;
3050;SDS011;1535;51.098;6.414;2022-07-12T14:25:09;16.87;;;15.97;;
3050;SDS011;1535;51.098;6.414;2022-07-12T14:27:37;16.40;;;15.60;;
3050;SDS011;1535;51.098;6.414;2022-07-12T14:30:07;16.10;;;15.33;;
3050;SDS011;1535;51.098;6.414;2022-07-12T14:32:36;16.80;;;15.60;;
3050;SDS011;1535;51.098;6.414;2022-07-12T14:35:04;16.10;;;15.07;;
3050;SDS011;1535;51.098;6.414;2022-07-12T14:37:32;14.80;;;14.10;;
3050;SDS011;1535;51.098;6.414;2022-07-12T14:39:58;15.53;;;14.83;;
3050;SDS011;1535;51.098;6.414;2022-07-12T14:42:25;15.43;;;14.70;;
3050;SDS011;1535;51.098;6.414;2022-07-12T14:44:52;15.70;;;15.00;;
3050;SDS011;1535;51.098;6.414;2022-07-12T14:47:21;16.30;;;15.40;;
3050;SDS011;1535;51.098;6.414;2022-07-12T14:49:48;15.67;;;14.70;;
3050;SDS011;1535;51.098;6.414;2022-07-12T14:52:15;16.10;;;15.40;;
3050;SDS011;1535;51.098;6.414;2022-07-12T14:54:44;16.43;;;15.50;;
3050;SDS011;1535;51.098;6.414;2022-07-12T14:57:11;16.30;;;15.23;;
3050;SDS011;1535;51.098;6.414;2022-07-12T14:59:38;16.07;;;15.07;;
3050;SDS011;1535;51.098;6.414;2022-07-12T15:02:05;16.50;;;15.47;;
3050;SDS011;1535;51.098;6.414;2022-07-12T15:04:33;16.70;;;15.90;;
3050;SDS011;1535;51.098;6.414;2022-07-12T15:07:00;15.93;;;15.23;;
3050;SDS011;1535;51.098;6.414;2022-07-12T15:09:27;16.80;;;15.20;;